sensor_id;sensor_type;location;lat;lon;timestamp;pressure;altitude;pressure_sealevel;temperature;humidity
50394;BME280;36308;46.312;25.288;2023-03-13T00:00:13;96394.19;;;-2.99;59.19
50394;BME280;36308;46.312;25.288;2023-03-13T00:02:39;96371.69;;;-3.10;59.31
50394;BME280;36308;46.312;25.288;2023-03-13T00:05:05;96384.84;;;-3.02;59.16
50394;BME280;36308;46.312;25.288;2023-03-13T00:07:31;96390.09;;;-3.02;59.15
50394;BME280;36308;46.312;25.288;2023-03-13T00:09:56;96385.81;;;-3.03;59.29
50394;BME280;36308;46.312;25.288;2023-03-13T00:12:22;96379.88;;;-3.05;59.70
50394;BME280;36308;46.312;25.288;2023-03-13T00:14:47;96386.16;;;-3.06;59.61
50394;BME280;36308;46.312;25.288;2023-03-13T00:17:12;96379.25;;;-3.07;59.28
50394;BME280;36308;46.312;25.288;2023-03-13T00:19:38;96378.59;;;-3.09;59.43
50394;BME280;36308;46.312;25.288;2023-03-13T00:22:03;96381.38;;;-3.11;59.40
50394;BME280;36308;46.312;25.288;2023-03-13T00:24:29;96372.00;;;-3.13;59.51
50394;BME280;36308;46.312;25.288;2023-03-13T00:26:54;96380.88;;;-3.14;59.34
50394;BME280;36308;46.312;25.288;2023-03-13T00:29:20;96382.84;;;-3.16;59.51
50394;BME280;36308;46.312;25.288;2023-03-13T00:31:46;96376.78;;;-3.17;59.54
50394;BME280;36308;46.312;25.288;2023-03-13T00:34:11;96382.34;;;-3.20;59.50
50394;BME280;36308;46.312;25.288;2023-03-13T00:36:37;96377.41;;;-3.23;59.68
50394;BME280;36308;46.312;25.288;2023-03-13T00:39:04;96374.94;;;-3.25;59.83
50394;BME280;36308;46.312;25.288;2023-03-13T00:41:31;96379.53;;;-3.27;59.97
50394;BME280;36308;46.312;25.288;2023-03-13T00:43:57;96373.63;;;-3.29;59.70
50394;BME280;36308;46.312;25.288;2023-03-13T00:46:25;96370.34;;;-3.31;59.61
50394;BME280;36308;46.312;25.288;2023-03-13T00:48:51;96359.16;;;-3.41;59.98
50394;BME280;36308;46.312;25.288;2023-03-13T00:51:18;96370.31;;;-3.39;59.99
50394;BME280;36308;46.312;25.288;2023-03-13T00:53:44;96368.50;;;-3.38;59.90
50394;BME280;36308;46.312;25.288;2023-03-13T00:56:12;96365.22;;;-3.40;60.23
50394;BME280;36308;46.312;25.288;2023-03-13T00:58:40;96364.56;;;-3.42;60.00
50394;BME280;36308;46.312;25.288;2023-03-13T01:03:33;96354.53;;;-3.47;60.00
50394;BME280;36308;46.312;25.288;2023-03-13T01:06:01;96360.78;;;-3.48;60.04
50394;BME280;36308;46.312;25.288;2023-03-13T01:08:27;96361.75;;;-3.49;60.42
50394;BME280;36308;46.312;25.288;2023-03-13T01:11:14;96362.91;;;-3.52;60.24
50394;BME280;36308;46.312;25.288;2023-03-13T01:13:40;96367.34;;;-3.52;60.43
50394;BME280;36308;46.312;25.288;2023-03-13T01:16:14;96362.41;;;-3.55;60.27
50394;BME280;36308;46.312;25.288;2023-03-13T01:18:43;96357.50;;;-3.58;60.29
50394;BME280;36308;46.312;25.288;2023-03-13T01:21:10;96366.34;;;-3.59;60.53
50394;BME280;36308;46.312;25.288;2023-03-13T01:23:35;96362.25;;;-3.62;60.34
50394;BME280;36308;46.312;25.288;2023-03-13T01:26:03;96363.06;;;-3.61;60.83
50394;BME280;36308;46.312;25.288;2023-03-13T01:28:29;96361.72;;;-3.66;60.95
50394;BME280;36308;46.312;25.288;2023-03-13T01:30:54;96365.34;;;-3.67;60.68
50394;BME280;36308;46.312;25.288;2023-03-13T01:33:20;96379.47;;;-3.68;60.57
50394;BME280;36308;46.312;25.288;2023-03-13T01:35:45;96388.66;;;-3.72;60.72
50394;BME280;36308;46.312;25.288;2023-03-13T01:38:11;96395.56;;;-3.71;60.89
50394;BME280;36308;46.312;25.288;2023-03-13T01:40:46;96397.53;;;-3.73;60.61
50394;BME280;36308;46.312;25.288;2023-03-13T01:43:23;96394.09;;;-3.73;60.75
50394;BME280;36308;46.312;25.288;2023-03-13T01:45:56;96400.31;;;-3.74;60.81
50394;BME280;36308;46.312;25.288;2023-03-13T01:48:24;96402.13;;;-3.75;60.77
50394;BME280;36308;46.312;25.288;2023-03-13T01:50:53;96400.44;;;-3.76;60.83
50394;BME280;36308;46.312;25.288;2023-03-13T01:53:19;96405.03;;;-3.78;60.79
50394;BME280;36308;46.312;25.288;2023-03-13T01:55:45;96408.66;;;-3.79;60.84
50394;BME280;36308;46.312;25.288;2023-03-13T01:58:11;96408.00;;;-3.81;61.03
50394;BME280;36308;46.312;25.288;2023-03-13T02:00:38;96413.41;;;-3.82;61.01
50394;BME280;36308;46.312;25.288;2023-03-13T02:03:13;96421.44;;;-3.84;60.95
50394;BME280;36308;46.312;25.288;2023-03-13T02:05:40;96419.28;;;-3.89;61.25
50394;BME280;36308;46.312;25.288;2023-03-13T02:08:20;96427.03;;;-3.87;61.06
50394;BME280;36308;46.312;25.288;2023-03-13T02:10:55;96428.00;;;-3.88;61.34
50394;BME280;36308;46.312;25.288;2023-03-13T02:13:24;96431.63;;;-3.89;61.05
50394;BME280;36308;46.312;25.288;2023-03-13T02:15:50;96426.03;;;-3.94;61.11
50394;BME280;36308;46.312;25.288;2023-03-13T02:18:16;96442.59;;;-3.94;61.02
50394;BME280;36308;46.312;25.288;2023-03-13T02:20:42;96446.53;;;-3.98;61.23
50394;BME280;36308;46.312;25.288;2023-03-13T02:23:30;96459.50;;;-3.96;61.48
50394;BME280;36308;46.312;25.288;2023-03-13T02:25:59;96452.59;;;-3.97;61.26
50394;BME280;36308;46.312;25.288;2023-03-13T02:28:28;96457.84;;;-3.97;61.75
50394;BME280;36308;46.312;25.288;2023-03-13T02:30:58;96453.59;;;-3.98;61.53
50394;BME280;36308;46.312;25.288;2023-03-13T02:33:27;96456.22;;;-3.98;61.46
50394;BME280;36308;46.312;25.288;2023-03-13T02:35:53;96455.69;;;-4.02;61.62
50394;BME280;36308;46.312;25.288;2023-03-13T02:38:23;96443.03;;;-4.07;61.37
50394;BME280;36308;46.312;25.288;2023-03-13T02:40:51;96452.88;;;-4.09;61.88
50394;BME280;36308;46.312;25.288;2023-03-13T02:43:23;96460.38;;;-4.14;61.60
50394;BME280;36308;46.312;25.288;2023-03-13T02:48:37;96468.25;;;-4.14;61.87
50394;BME280;36308;46.312;25.288;2023-03-13T02:51:08;96474.66;;;-4.16;61.55
50394;BME280;36308;46.312;25.288;2023-03-13T02:53:35;96465.56;;;-4.22;61.84
50394;BME280;36308;46.312;25.288;2023-03-13T02:56:02;96475.78;;;-4.19;61.80
50394;BME280;36308;46.312;25.288;2023-03-13T02:58:36;96479.38;;;-4.20;61.82
50394;BME280;36308;46.312;25.288;2023-03-13T03:01:02;96478.56;;;-4.20;62.16
50394;BME280;36308;46.312;25.288;2023-03-13T03:03:35;96484.94;;;-4.23;61.94
50394;BME280;36308;46.312;25.288;2023-03-13T03:06:02;96488.53;;;-4.24;62.26
50394;BME280;36308;46.312;25.288;2023-03-13T03:08:28;96492.97;;;-4.24;62.06
50394;BME280;36308;46.312;25.288;2023-03-13T03:10:53;96483.06;;;-4.31;61.91
50394;BME280;36308;46.312;25.288;2023-03-13T03:13:19;96492.44;;;-4.28;62.15
50394;BME280;36308;46.312;25.288;2023-03-13T03:15:44;96485.84;;;-4.32;62.02
50394;BME280;36308;46.312;25.288;2023-03-13T03:18:10;96496.66;;;-4.35;62.22
50394;BME280;36308;46.312;25.288;2023-03-13T03:20:36;96491.03;;;-4.40;62.31
50394;BME280;36308;46.312;25.288;2023-03-13T03:23:01;96484.44;;;-4.44;62.18
50394;BME280;36308;46.312;25.288;2023-03-13T03:25:27;96497.56;;;-4.44;62.23
50394;BME280;36308;46.312;25.288;2023-03-13T03:27:52;96497.06;;;-4.48;62.15
50394;BME280;36308;46.312;25.288;2023-03-13T03:30:18;96497.06;;;-4.48;62.20
50394;BME280;36308;46.312;25.288;2023-03-13T03:32:44;96495.72;;;-4.52;62.55
50394;BME280;36308;46.312;25.288;2023-03-13T03:35:09;96503.44;;;-4.51;62.75
50394;BME280;36308;46.312;25.288;2023-03-13T03:37:35;96500.97;;;-4.52;62.62
50394;BME280;36308;46.312;25.288;2023-03-13T03:40:00;96506.22;;;-4.52;62.73
50394;BME280;36308;46.312;25.288;2023-03-13T03:42:26;96504.56;;;-4.53;62.41
50394;BME280;36308;46.312;25.288;2023-03-13T03:44:51;96511.09;;;-4.57;62.39
50394;BME280;36308;46.312;25.288;2023-03-13T03:47:17;96512.56;;;-4.55;62.42
50394;BME280;36308;46.312;25.288;2023-03-13T03:49:42;96501.41;;;-4.57;62.76
50394;BME280;36308;46.312;25.288;2023-03-13T03:52:08;96505.69;;;-4.56;62.75
50394;BME280;36308;46.312;25.288;2023-03-13T03:54:33;96502.41;;;-4.58;62.72
50394;BME280;36308;46.312;25.288;2023-03-13T03:56:59;96498.28;;;-4.60;62.67
50394;BME280;36308;46.312;25.288;2023-03-13T03:59:25;96505.31;;;-4.61;62.62
50394;BME280;36308;46.312;25.288;2023-03-13T04:01:50;96500.06;;;-4.61;62.87
50394;BME280;36308;46.312;25.288;2023-03-13T04:04:16;96501.88;;;-4.61;62.66
50394;BME280;36308;46.312;25.288;2023-03-13T04:06:41;96508.94;;;-4.62;62.96
50394;BME280;36308;46.312;25.288;2023-03-13T04:09:07;96495.13;;;-4.64;62.49
50394;BME280;36308;46.312;25.288;2023-03-13T04:11:32;96503.00;;;-4.64;62.47
50394;BME280;36308;46.312;25.288;2023-03-13T04:13:58;96497.38;;;-4.69;62.85
50394;BME280;36308;46.312;25.288;2023-03-13T04:16:23;96497.22;;;-4.68;62.96
50394;BME280;36308;46.312;25.288;2023-03-13T04:18:49;96500.00;;;-4.69;62.81
50394;BME280;36308;46.312;25.288;2023-03-13T04:21:14;96494.75;;;-4.69;62.98
50394;BME280;36308;46.312;25.288;2023-03-13T04:23:40;96488.00;;;-4.72;62.96
50394;BME280;36308;46.312;25.288;2023-03-13T04:26:05;96479.31;;;-4.72;62.96
50394;BME280;36308;46.312;25.288;2023-03-13T04:28:31;96498.50;;;-4.72;62.85
50394;BME280;36308;46.312;25.288;2023-03-13T04:30:56;96495.06;;;-4.72;63.06
50394;BME280;36308;46.312;25.288;2023-03-13T04:33:25;96499.63;;;-4.74;62.93
50394;BME280;36308;46.312;25.288;2023-03-13T04:35:50;96498.66;;;-4.73;63.24
50394;BME280;36308;46.312;25.288;2023-03-13T04:38:16;96495.34;;;-4.75;63.06
50394;BME280;36308;46.312;25.288;2023-03-13T04:40:41;96508.19;;;-4.72;62.95
50394;BME280;36308;46.312;25.288;2023-03-13T04:43:07;96511.75;;;-4.73;63.45
50394;BME280;36308;46.312;25.288;2023-03-13T04:45:33;96507.50;;;-4.74;63.21
50394;BME280;36308;46.312;25.288;2023-03-13T04:47:59;96507.50;;;-4.74;63.37
50394;BME280;36308;46.312;25.288;2023-03-13T04:50:24;96507.50;;;-4.74;63.20
50394;BME280;36308;46.312;25.288;2023-03-13T04:52:50;96491.22;;;-4.78;63.78
50394;BME280;36308;46.312;25.288;2023-03-13T04:55:16;96502.25;;;-4.74;63.13
50394;BME280;36308;46.312;25.288;2023-03-13T04:57:41;96500.59;;;-4.75;63.89
50394;BME280;36308;46.312;25.288;2023-03-13T05:00:08;96483.28;;;-4.86;63.57
50394;BME280;36308;46.312;25.288;2023-03-13T05:02:34;96504.88;;;-4.74;63.81
50394;BME280;36308;46.312;25.288;2023-03-13T05:05:00;96514.38;;;-4.73;63.67
50394;BME280;36308;46.312;25.288;2023-03-13T05:07:26;96522.25;;;-4.73;63.62
50394;BME280;36308;46.312;25.288;2023-03-13T05:09:51;96520.63;;;-4.74;63.78
50394;BME280;36308;46.312;25.288;2023-03-13T05:12:17;96524.88;;;-4.73;63.68
50394;BME280;36308;46.312;25.288;2023-03-13T05:14:42;96529.31;;;-4.74;63.66
50394;BME280;36308;46.312;25.288;2023-03-13T05:17:08;96530.66;;;-4.70;63.92
50394;BME280;36308;46.312;25.288;2023-03-13T05:19:35;96528.84;;;-4.69;64.11
50394;BME280;36308;46.312;25.288;2023-03-13T05:22:00;96538.66;;;-4.71;64.11
50394;BME280;36308;46.312;25.288;2023-03-13T05:24:26;96552.53;;;-4.61;63.75
50394;BME280;36308;46.312;25.288;2023-03-13T05:26:52;96552.25;;;-4.58;64.23
50394;BME280;36308;46.312;25.288;2023-03-13T05:29:17;96551.25;;;-4.57;64.49
50394;BME280;36308;46.312;25.288;2023-03-13T05:31:43;96558.72;;;-4.52;64.27
50394;BME280;36308;46.312;25.288;2023-03-13T05:34:08;96560.88;;;-4.48;64.51
50394;BME280;36308;46.312;25.288;2023-03-13T05:36:34;96553.81;;;-4.47;64.58
50394;BME280;36308;46.312;25.288;2023-03-13T05:38:59;96550.44;;;-4.39;64.55
50394;BME280;36308;46.312;25.288;2023-03-13T05:41:25;96550.81;;;-4.34;64.65
50394;BME280;36308;46.312;25.288;2023-03-13T05:43:50;96561.69;;;-4.29;64.83
50394;BME280;36308;46.312;25.288;2023-03-13T05:46:16;96560.91;;;-4.21;65.05
50394;BME280;36308;46.312;25.288;2023-03-13T05:48:41;96552.59;;;-4.17;64.85
50394;BME280;36308;46.312;25.288;2023-03-13T05:51:09;96553.94;;;-4.13;64.51
50394;BME280;36308;46.312;25.288;2023-03-13T05:53:35;96554.28;;;-4.08;64.67
50394;BME280;36308;46.312;25.288;2023-03-13T05:56:00;96554.34;;;-3.99;64.59
50394;BME280;36308;46.312;25.288;2023-03-13T05:58:26;96567.19;;;-3.96;64.61
50394;BME280;36308;46.312;25.288;2023-03-13T06:00:52;96560.63;;;-3.92;64.59
50394;BME280;36308;46.312;25.288;2023-03-13T06:03:17;96563.47;;;-3.86;64.46
50394;BME280;36308;46.312;25.288;2023-03-13T06:05:43;96570.75;;;-3.79;64.72
50394;BME280;36308;46.312;25.288;2023-03-13T06:08:09;96569.28;;;-3.74;64.71
50394;BME280;36308;46.312;25.288;2023-03-13T06:10:35;96575.59;;;-3.67;64.63
50394;BME280;36308;46.312;25.288;2023-03-13T06:13:00;96574.16;;;-3.61;64.38
50394;BME280;36308;46.312;25.288;2023-03-13T06:15:26;96572.00;;;-3.57;64.32
50394;BME280;36308;46.312;25.288;2023-03-13T06:17:51;96572.72;;;-3.47;64.57
50394;BME280;36308;46.312;25.288;2023-03-13T06:20:17;96566.53;;;-3.38;64.40
50394;BME280;36308;46.312;25.288;2023-03-13T06:22:43;96562.94;;;-3.29;64.65
50394;BME280;36308;46.312;25.288;2023-03-13T06:25:09;96561.00;;;-3.27;64.70
50394;BME280;36308;46.312;25.288;2023-03-13T06:27:34;96571.56;;;-3.10;64.68
50394;BME280;36308;46.312;25.288;2023-03-13T06:30:00;96572.13;;;-2.98;64.56
50394;BME280;36308;46.312;25.288;2023-03-13T06:32:27;96567.38;;;-2.87;64.44
50394;BME280;36308;46.312;25.288;2023-03-13T06:34:52;96566.41;;;-2.77;64.24
50394;BME280;36308;46.312;25.288;2023-03-13T06:37:18;96574.34;;;-2.69;64.34
50394;BME280;36308;46.312;25.288;2023-03-13T06:39:43;96567.28;;;-2.60;64.04
50394;BME280;36308;46.312;25.288;2023-03-13T06:42:09;96567.78;;;-2.49;63.85
50394;BME280;36308;46.312;25.288;2023-03-13T06:44:34;96559.06;;;-2.41;63.67
50394;BME280;36308;46.312;25.288;2023-03-13T06:47:00;96553.63;;;-2.31;63.76
50394;BME280;36308;46.312;25.288;2023-03-13T06:49:26;96558.59;;;-2.20;63.43
50394;BME280;36308;46.312;25.288;2023-03-13T06:51:51;96568.13;;;-2.11;63.34
50394;BME280;36308;46.312;25.288;2023-03-13T06:54:16;96559.06;;;-2.00;63.40
50394;BME280;36308;46.312;25.288;2023-03-13T06:56:42;96548.00;;;-1.87;63.20
50394;BME280;36308;46.312;25.288;2023-03-13T06:59:07;96554.59;;;-1.75;62.74
50394;BME280;36308;46.312;25.288;2023-03-13T07:01:33;96554.25;;;-1.64;62.28
50394;BME280;36308;46.312;25.288;2023-03-13T07:03:59;96562.44;;;-1.50;62.32
50394;BME280;36308;46.312;25.288;2023-03-13T07:06:24;96565.38;;;-1.37;62.07
50394;BME280;36308;46.312;25.288;2023-03-13T07:08:51;96567.28;;;-1.23;61.55
50394;BME280;36308;46.312;25.288;2023-03-13T07:11:16;96567.59;;;-1.09;61.33
50394;BME280;36308;46.312;25.288;2023-03-13T07:13:42;96562.56;;;-0.96;61.02
50394;BME280;36308;46.312;25.288;2023-03-13T07:16:10;96552.94;;;-0.80;61.15
50394;BME280;36308;46.312;25.288;2023-03-13T07:18:37;96551.84;;;-0.63;60.73
50394;BME280;36308;46.312;25.288;2023-03-13T07:21:04;96555.41;;;-0.48;60.35
50394;BME280;36308;46.312;25.288;2023-03-13T07:23:30;96561.19;;;-0.29;60.88
50394;BME280;36308;46.312;25.288;2023-03-13T07:25:58;96551.72;;;-0.01;61.39
50394;BME280;36308;46.312;25.288;2023-03-13T07:28:25;96556.06;;;0.30;61.20
50394;BME280;36308;46.312;25.288;2023-03-13T07:30:52;96551.81;;;0.59;61.06
50394;BME280;36308;46.312;25.288;2023-03-13T07:33:18;96548.97;;;0.90;60.39
50394;BME280;36308;46.312;25.288;2023-03-13T07:35:50;96551.56;;;1.20;60.18
50394;BME280;36308;46.312;25.288;2023-03-13T07:38:17;96557.34;;;1.45;58.88
50394;BME280;36308;46.312;25.288;2023-03-13T07:40:53;96546.16;;;1.65;59.38
50394;BME280;36308;46.312;25.288;2023-03-13T07:43:19;96544.31;;;1.87;57.93
50394;BME280;36308;46.312;25.288;2023-03-13T07:45:52;96538.97;;;2.01;56.98
50394;BME280;36308;46.312;25.288;2023-03-13T07:48:19;96528.84;;;2.12;56.72
50394;BME280;36308;46.312;25.288;2023-03-13T07:50:45;96543.06;;;2.32;55.87
50394;BME280;36308;46.312;25.288;2023-03-13T07:53:10;96543.53;;;2.42;55.10
50394;BME280;36308;46.312;25.288;2023-03-13T07:55:36;96542.41;;;2.52;54.47
50394;BME280;36308;46.312;25.288;2023-03-13T07:58:01;96536.31;;;2.58;54.75
50394;BME280;36308;46.312;25.288;2023-03-13T08:00:27;96533.50;;;2.66;53.56
50394;BME280;36308;46.312;25.288;2023-03-13T08:02:52;96545.78;;;2.74;53.40
50394;BME280;36308;46.312;25.288;2023-03-13T08:05:18;96541.78;;;2.85;52.57
50394;BME280;36308;46.312;25.288;2023-03-13T08:07:44;96538.38;;;2.97;52.73
50394;BME280;36308;46.312;25.288;2023-03-13T08:10:10;96535.56;;;3.12;52.75
50394;BME280;36308;46.312;25.288;2023-03-13T08:12:35;96533.38;;;3.29;52.45
50394;BME280;36308;46.312;25.288;2023-03-13T08:15:01;96537.09;;;3.48;51.32
50394;BME280;36308;46.312;25.288;2023-03-13T08:17:28;96541.88;;;3.66;51.44
50394;BME280;36308;46.312;25.288;2023-03-13T08:19:54;96538.41;;;3.85;51.65
50394;BME280;36308;46.312;25.288;2023-03-13T08:22:20;96534.34;;;4.10;50.67
50394;BME280;36308;46.312;25.288;2023-03-13T08:24:45;96540.06;;;4.33;49.89
50394;BME280;36308;46.312;25.288;2023-03-13T08:27:11;96533.50;;;4.56;49.81
50394;BME280;36308;46.312;25.288;2023-03-13T08:29:37;96534.28;;;4.76;49.29
50394;BME280;36308;46.312;25.288;2023-03-13T08:32:02;96533.81;;;4.99;48.00
50394;BME280;36308;46.312;25.288;2023-03-13T08:34:28;96520.44;;;5.19;47.81
50394;BME280;36308;46.312;25.288;2023-03-13T08:36:53;96521.75;;;5.42;48.21
50394;BME280;36308;46.312;25.288;2023-03-13T08:39:19;96521.44;;;5.63;48.07
50394;BME280;36308;46.312;25.288;2023-03-13T08:41:45;96515.34;;;5.88;47.58
50394;BME280;36308;46.312;25.288;2023-03-13T08:44:14;96516.19;;;6.14;44.88
50394;BME280;36308;46.312;25.288;2023-03-13T08:46:40;96515.44;;;6.32;44.27
50394;BME280;36308;46.312;25.288;2023-03-13T08:49:06;96519.41;;;6.47;43.96
50394;BME280;36308;46.312;25.288;2023-03-13T08:51:33;96523.97;;;6.65;43.04
50394;BME280;36308;46.312;25.288;2023-03-13T08:54:00;96521.53;;;6.82;42.08
50394;BME280;36308;46.312;25.288;2023-03-13T08:56:26;96519.31;;;6.98;42.31
50394;BME280;36308;46.312;25.288;2023-03-13T08:59:03;96519.31;;;7.16;42.18
50394;BME280;36308;46.312;25.288;2023-03-13T09:01:32;96518.84;;;7.38;41.93
50394;BME280;36308;46.312;25.288;2023-03-13T09:03:57;96503.72;;;7.62;39.93
50394;BME280;36308;46.312;25.288;2023-03-13T09:06:24;96509.59;;;7.82;39.43
50394;BME280;36308;46.312;25.288;2023-03-13T09:08:50;96511.38;;;8.00;38.84
50394;BME280;36308;46.312;25.288;2023-03-13T09:11:18;96526.34;;;8.20;38.87
50394;BME280;36308;46.312;25.288;2023-03-13T09:13:46;96520.66;;;8.40;39.73
50394;BME280;36308;46.312;25.288;2023-03-13T09:16:14;96525.22;;;8.63;39.02
50394;BME280;36308;46.312;25.288;2023-03-13T09:18:40;96521.13;;;8.84;37.35
50394;BME280;36308;46.312;25.288;2023-03-13T09:21:17;96531.50;;;9.04;36.66
50394;BME280;36308;46.312;25.288;2023-03-13T09:23:43;96520.41;;;9.24;36.14
50394;BME280;36308;46.312;25.288;2023-03-13T09:26:09;96519.16;;;9.43;36.34
50394;BME280;36308;46.312;25.288;2023-03-13T09:28:35;96526.81;;;9.63;37.12
50394;BME280;36308;46.312;25.288;2023-03-13T09:31:09;96524.81;;;9.87;37.21
50394;BME280;36308;46.312;25.288;2023-03-13T09:33:35;96524.72;;;10.11;37.37
50394;BME280;36308;46.312;25.288;2023-03-13T09:36:00;96530.22;;;10.33;36.95
50394;BME280;36308;46.312;25.288;2023-03-13T09:38:26;96527.84;;;10.54;35.62
50394;BME280;36308;46.312;25.288;2023-03-13T09:40:54;96534.34;;;10.75;36.60
50394;BME280;36308;46.312;25.288;2023-03-13T09:46:07;96527.75;;;11.21;36.51
50394;BME280;36308;46.312;25.288;2023-03-13T09:48:40;96525.63;;;11.45;36.04
50394;BME280;36308;46.312;25.288;2023-03-13T09:51:22;96523.72;;;11.68;34.49
50394;BME280;36308;46.312;25.288;2023-03-13T09:56:51;96514.38;;;11.98;32.50
50394;BME280;36308;46.312;25.288;2023-03-13T10:01:59;96515.50;;;12.29;33.54
50394;BME280;36308;46.312;25.288;2023-03-13T10:04:39;96505.38;;;12.46;33.31
50394;BME280;36308;46.312;25.288;2023-03-13T10:07:10;96509.31;;;12.66;33.11
50394;BME280;36308;46.312;25.288;2023-03-13T10:09:36;96508.31;;;12.82;33.49
50394;BME280;36308;46.312;25.288;2023-03-13T10:12:05;96508.44;;;12.98;33.68
50394;BME280;36308;46.312;25.288;2023-03-13T10:14:41;96503.91;;;13.13;33.12
50394;BME280;36308;46.312;25.288;2023-03-13T10:19:42;96495.72;;;13.46;32.91
50394;BME280;36308;46.312;25.288;2023-03-13T10:22:18;96491.44;;;13.60;32.33
50394;BME280;36308;46.312;25.288;2023-03-13T10:27:16;96489.38;;;13.93;32.12
50394;BME280;36308;46.312;25.288;2023-03-13T10:29:42;96493.72;;;14.09;31.77
50394;BME280;36308;46.312;25.288;2023-03-13T10:32:11;96494.28;;;14.27;31.37
50394;BME280;36308;46.312;25.288;2023-03-13T10:37:27;96486.44;;;14.56;30.90
50394;BME280;36308;46.312;25.288;2023-03-13T10:39:54;96485.63;;;14.71;30.83
50394;BME280;36308;46.312;25.288;2023-03-13T10:42:37;96481.81;;;14.87;30.83
50394;BME280;36308;46.312;25.288;2023-03-13T10:45:14;96477.44;;;15.02;30.71
50394;BME280;36308;46.312;25.288;2023-03-13T10:47:40;96467.16;;;15.09;30.62
50394;BME280;36308;46.312;25.288;2023-03-13T10:50:06;96459.50;;;15.26;30.43
50394;BME280;36308;46.312;25.288;2023-03-13T10:52:41;96462.69;;;15.33;29.57
50394;BME280;36308;46.312;25.288;2023-03-13T10:55:11;96458.88;;;15.40;29.42
50394;BME280;36308;46.312;25.288;2023-03-13T10:57:38;96448.88;;;15.40;28.44
50394;BME280;36308;46.312;25.288;2023-03-13T11:00:41;96442.94;;;15.38;28.40
50394;BME280;36308;46.312;25.288;2023-03-13T11:03:30;96439.38;;;15.43;28.25
50394;BME280;36308;46.312;25.288;2023-03-13T11:06:01;96431.19;;;15.48;28.06
50394;BME280;36308;46.312;25.288;2023-03-13T11:08:33;96438.53;;;15.52;27.81
50394;BME280;36308;46.312;25.288;2023-03-13T11:11:04;96425.19;;;15.56;26.55
50394;BME280;36308;46.312;25.288;2023-03-13T11:13:40;96426.84;;;15.52;26.39
50394;BME280;36308;46.312;25.288;2023-03-13T11:22:06;96410.09;;;15.45;26.24
50394;BME280;36308;46.312;25.288;2023-03-13T11:24:41;96404.63;;;15.50;26.68
50394;BME280;36308;46.312;25.288;2023-03-13T11:33:35;96391.97;;;15.85;26.59
50394;BME280;36308;46.312;25.288;2023-03-13T11:36:18;96398.97;;;15.96;26.45
50394;BME280;36308;46.312;25.288;2023-03-13T11:38:53;96391.31;;;16.03;25.75
50394;BME280;36308;46.312;25.288;2023-03-13T11:41:41;96392.88;;;16.09;25.59
50394;BME280;36308;46.312;25.288;2023-03-13T11:58:43;96376.44;;;16.30;22.97
50394;BME280;36308;46.312;25.288;2023-03-13T12:01:13;96374.69;;;16.39;23.49
50394;BME280;36308;46.312;25.288;2023-03-13T12:04:00;96372.50;;;16.41;22.26
50394;BME280;36308;46.312;25.288;2023-03-13T12:06:34;96369.75;;;16.46;22.91
50394;BME280;36308;46.312;25.288;2023-03-13T12:09:14;96369.16;;;16.49;21.91
50394;BME280;36308;46.312;25.288;2023-03-13T12:11:54;96371.31;;;16.52;22.12
50394;BME280;36308;46.312;25.288;2023-03-13T12:14:38;96369.16;;;16.49;20.76
50394;BME280;36308;46.312;25.288;2023-03-13T12:17:09;96369.75;;;16.46;20.61
50394;BME280;36308;46.312;25.288;2023-03-13T12:19:50;96362.25;;;16.38;19.08
50394;BME280;36308;46.312;25.288;2023-03-13T12:22:26;96362.59;;;16.31;18.91
50394;BME280;36308;46.312;25.288;2023-03-13T12:24:59;96353.09;;;16.29;19.47
50394;BME280;36308;46.312;25.288;2023-03-13T12:27:40;96356.31;;;16.31;19.74
50394;BME280;36308;46.312;25.288;2023-03-13T12:30:30;96364.78;;;16.29;18.65
50394;BME280;36308;46.312;25.288;2023-03-13T12:33:16;96360.16;;;16.30;19.58
50394;BME280;36308;46.312;25.288;2023-03-13T12:35:48;96359.56;;;16.33;20.71
50394;BME280;36308;46.312;25.288;2023-03-13T12:38:25;96361.19;;;16.34;20.16
50394;BME280;36308;46.312;25.288;2023-03-13T12:43:39;96357.97;;;16.32;20.70
50394;BME280;36308;46.312;25.288;2023-03-13T12:46:37;96351.41;;;16.33;21.39
50394;BME280;36308;46.312;25.288;2023-03-13T13:00:15;96342.22;;;16.58;19.61
50394;BME280;36308;46.312;25.288;2023-03-13T13:02:43;96334.13;;;16.53;19.62
50394;BME280;36308;46.312;25.288;2023-03-13T13:05:20;96345.34;;;16.46;18.92
50394;BME280;36308;46.312;25.288;2023-03-13T13:07:54;96344.28;;;16.42;19.54
50394;BME280;36308;46.312;25.288;2023-03-13T13:10:22;96338.59;;;16.44;20.26
50394;BME280;36308;46.312;25.288;2023-03-13T13:16:01;96332.69;;;16.61;20.85
50394;BME280;36308;46.312;25.288;2023-03-13T13:18:30;96329.91;;;16.66;20.13
50394;BME280;36308;46.312;25.288;2023-03-13T13:23:38;96316.13;;;16.62;20.34
50394;BME280;36308;46.312;25.288;2023-03-13T13:28:55;96319.16;;;16.55;21.67
50394;BME280;36308;46.312;25.288;2023-03-13T13:31:44;96307.88;;;16.48;21.62
50394;BME280;36308;46.312;25.288;2023-03-13T13:36:59;96297.63;;;16.40;20.60
50394;BME280;36308;46.312;25.288;2023-03-13T13:39:40;96299.75;;;16.43;20.37
50394;BME280;36308;46.312;25.288;2023-03-13T13:47:43;96272.63;;;16.43;20.98
50394;BME280;36308;46.312;25.288;2023-03-13T13:52:41;96288.47;;;16.60;22.20
50394;BME280;36308;46.312;25.288;2023-03-13T13:58:03;96285.41;;;16.67;22.37
50394;BME280;36308;46.312;25.288;2023-03-13T14:00:57;96281.06;;;16.66;21.84
50394;BME280;36308;46.312;25.288;2023-03-13T14:03:27;96271.34;;;16.60;22.68
50394;BME280;36308;46.312;25.288;2023-03-13T14:06:01;96283.75;;;16.66;22.48
50394;BME280;36308;46.312;25.288;2023-03-13T14:08:32;96277.44;;;16.70;22.22
50394;BME280;36308;46.312;25.288;2023-03-13T14:14:16;96268.84;;;16.44;22.17
50394;BME280;36308;46.312;25.288;2023-03-13T14:16:50;96276.91;;;16.49;22.48
50394;BME280;36308;46.312;25.288;2023-03-13T14:19:28;96274.78;;;16.46;22.39
50394;BME280;36308;46.312;25.288;2023-03-13T14:22:12;96275.28;;;16.48;22.32
50394;BME280;36308;46.312;25.288;2023-03-13T14:24:41;96270.91;;;16.52;22.78
50394;BME280;36308;46.312;25.288;2023-03-13T14:27:17;96274.13;;;16.54;22.82